createdAt,value
2023-11-30T00:00:45.611Z,93824.00
2023-11-30T00:03:13.181Z,93822.19
2023-11-30T00:05:40.680Z,93824.81
2023-11-30T00:08:09.504Z,93824.00
2023-11-30T00:10:37.002Z,93814.34
2023-11-30T00:13:05.601Z,93817.75
2023-11-30T00:15:33.155Z,93821.38
2023-11-30T00:18:00.750Z,93830.03
2023-11-30T00:20:28.280Z,93830.03
2023-11-30T00:22:55.825Z,93834.44
2023-11-30T00:25:24.710Z,93848.47
2023-11-30T00:27:52.564Z,93842.28
2023-11-30T00:30:20.086Z,93843.25
2023-11-30T00:32:47.670Z,93844.06
2023-11-30T00:35:15.319Z,93846.69
2023-11-30T00:37:42.819Z,93843.88
2023-11-30T00:40:10.964Z,93850.94
2023-11-30T00:42:39.922Z,93836.03
2023-11-30T00:45:08.153Z,93827.59
2023-11-30T00:47:35.699Z,93830.81
2023-11-30T00:50:03.199Z,93836.03
2023-11-30T00:52:30.695Z,93832.66
2023-11-30T00:54:58.180Z,93833.63
2023-11-30T00:57:25.652Z,93827.22
2023-11-30T00:59:54.643Z,93818.56
2023-11-30T01:02:22.184Z,93819.38
2023-11-30T01:04:49.696Z,93816.78
2023-11-30T01:07:17.193Z,93814.16
2023-11-30T01:09:44.717Z,93810.72
2023-11-30T01:12:12.500Z,93816.78
2023-11-30T01:14:41.904Z,93811.56
2023-11-30T01:17:10.718Z,93819.38
2023-11-30T01:19:38.164Z,93821.38
2023-11-30T01:22:06.348Z,93833.44
2023-11-30T01:24:33.851Z,93823.19
2023-11-30T01:27:01.440Z,93825.78
2023-11-30T01:29:28.924Z,93819.59
2023-11-30T01:31:56.416Z,93818.78
2023-11-30T01:34:25.252Z,93812.72
2023-11-30T01:36:52.739Z,93809.28
2023-11-30T01:39:20.268Z,93811.91
2023-11-30T01:41:47.801Z,93817.94
2023-11-30T01:44:15.288Z,93810.94
2023-11-30T01:46:42.865Z,93804.88
2023-11-30T01:49:10.776Z,93796.22
2023-11-30T01:51:39.697Z,93788.41
2023-11-30T01:54:07.593Z,93791.00
2023-11-30T01:56:37.117Z,93786.78
2023-11-30T01:59:05.137Z,93784.19
2023-11-30T02:01:32.942Z,93779.78
2023-11-30T02:04:04.650Z,93782.38
2023-11-30T02:06:32.178Z,93788.41
2023-11-30T02:09:01.075Z,93788.41
2023-11-30T02:11:28.579Z,93779.78
2023-11-30T02:13:56.099Z,93782.38
2023-11-30T02:16:23.732Z,93774.53
2023-11-30T02:18:51.302Z,93771.94
2023-11-30T02:21:18.895Z,93777.16
2023-11-30T02:23:48.528Z,93770.91
2023-11-30T02:26:16.021Z,93759.66
2023-11-30T02:28:43.538Z,93759.66
2023-11-30T02:31:11.073Z,93751.81
2023-11-30T02:33:38.662Z,93744.78
2023-11-30T02:36:06.659Z,93743.00
2023-11-30T02:38:34.170Z,93742.19
2023-11-30T02:41:03.064Z,93738.75
2023-11-30T02:43:30.997Z,93746.44
2023-11-30T02:45:58.569Z,93739.38
2023-11-30T02:48:26.094Z,93745.63
2023-11-30T02:50:53.644Z,93728.31
2023-11-30T02:53:21.135Z,93735.16
2023-11-30T02:55:48.626Z,93739.56
2023-11-30T02:58:17.469Z,93730.91
2023-11-30T03:00:44.990Z,93739.56
2023-11-30T03:03:12.495Z,93728.31
2023-11-30T03:05:40.041Z,93736.16
2023-11-30T03:08:07.516Z,93729.13
2023-11-30T03:10:34.985Z,93731.94
2023-11-30T03:13:02.524Z,93716.25
2023-11-30T03:15:32.085Z,93717.25
2023-11-30T03:17:59.636Z,93718.66
2023-11-30T03:20:27.279Z,93714.47
2023-11-30T03:22:54.741Z,93706.63
2023-11-30T03:25:22.300Z,93721.28
2023-11-30T03:27:49.805Z,93716.25
2023-11-30T03:30:17.408Z,93719.69
2023-11-30T03:32:46.316Z,93716.25
2023-11-30T03:35:13.802Z,93704.78
2023-11-30T03:37:43.884Z,93704.78
2023-11-30T03:40:11.839Z,93703.19
2023-11-30T03:42:39.341Z,93690.94
2023-11-30T03:45:07.265Z,93699.75
2023-11-30T03:47:34.754Z,93694.53
2023-11-30T03:50:03.667Z,93700.59
2023-11-30T03:52:31.177Z,93717.06
2023-11-30T03:54:58.662Z,93711.84
2023-11-30T03:57:26.214Z,93705.81
2023-11-30T03:59:54.013Z,93717.06
2023-11-30T04:02:21.918Z,93714.63
2023-11-30T04:04:49.523Z,93735.34
2023-11-30T04:07:18.470Z,93724.91
2023-11-30T04:09:47.061Z,93717.06
2023-11-30T04:12:14.572Z,93713.44
2023-11-30T04:14:42.071Z,93709.03
2023-11-30T04:17:09.586Z,93703.00
2023-11-30T04:19:37.112Z,93710.84
2023-11-30T04:22:04.668Z,93706.63
2023-11-30T04:24:33.514Z,93708.22
2023-11-30T04:27:01.177Z,93719.47
2023-11-30T04:29:29.362Z,93699.56
2023-11-30T04:31:56.972Z,93691.72
2023-11-30T04:34:24.645Z,93675.06
2023-11-30T04:36:52.108Z,93660.38
2023-11-30T04:39:21.455Z,93672.47
2023-11-30T04:41:50.398Z,93663.81
2023-11-30T04:44:19.550Z,93675.28
2023-11-30T04:46:48.396Z,93664.81
2023-11-30T04:49:16.119Z,93670.03
2023-11-30T04:51:43.609Z,93658.78
2023-11-30T04:54:11.126Z,93644.69
2023-11-30T04:56:38.680Z,93660.38
2023-11-30T04:59:07.498Z,93654.38
2023-11-30T05:01:36.972Z,93646.53
2023-11-30T05:04:04.955Z,93651.75
2023-11-30T05:06:32.700Z,93654.38
2023-11-30T05:09:00.283Z,93643.91
2023-11-30T05:11:27.805Z,93655.16
2023-11-30T05:13:55.280Z,93655.16
2023-11-30T05:16:24.154Z,93660.38
2023-11-30T05:18:51.689Z,93659.59
2023-11-30T05:21:19.186Z,93655.16
2023-11-30T05:23:46.652Z,93653.34
2023-11-30T05:26:14.173Z,93646.34
2023-11-30T05:28:41.644Z,93639.47
2023-11-30T05:31:09.412Z,93638.69
2023-11-30T05:33:38.786Z,93619.41
2023-11-30T05:36:06.584Z,93622.22
2023-11-30T05:38:34.109Z,93650.75
2023-11-30T05:41:01.629Z,93655.97
2023-11-30T05:43:29.116Z,93638.50
2023-11-30T05:45:56.618Z,93656.78
2023-11-30T05:48:24.168Z,93642.72
2023-11-30T05:50:53.018Z,93647.94
2023-11-30T05:53:20.805Z,93643.53
2023-11-30T05:55:48.265Z,93657.41
2023-11-30T05:58:15.744Z,93667.84
2023-11-30T06:00:44.188Z,93656.59
2023-11-30T06:03:11.807Z,93644.34
2023-11-30T06:05:39.363Z,93644.34
2023-11-30T06:08:08.200Z,93637.31
2023-11-30T06:10:35.673Z,93643.53
2023-11-30T06:13:03.576Z,93643.53
2023-11-30T06:15:31.136Z,93640.91
2023-11-30T06:17:58.784Z,93624.41
2023-11-30T06:20:26.345Z,93630.66
2023-11-30T06:22:53.881Z,93627.22
2023-11-30T06:25:22.799Z,93623.81
2023-11-30T06:27:50.318Z,93623.63
2023-11-30T06:30:17.821Z,93629.84
2023-11-30T06:32:45.449Z,93623.81
2023-11-30T06:35:13.031Z,93624.81
2023-11-30T06:37:40.492Z,93616.97
2023-11-30T06:40:10.004Z,93621.19
2023-11-30T06:42:38.853Z,93615.97
2023-11-30T06:45:06.934Z,93608.94
2023-11-30T06:47:34.540Z,93623.63
2023-11-30T06:50:02.117Z,93621.03
2023-11-30T06:52:29.598Z,93621.81
2023-11-30T06:54:57.091Z,93618.41
2023-11-30T06:57:25.090Z,93617.41
2023-11-30T06:59:54.060Z,93619.19
2023-11-30T07:02:22.938Z,93615.81
2023-11-30T07:04:50.783Z,93618.41
2023-11-30T07:07:27.925Z,93609.75
2023-11-30T07:10:01.542Z,93599.31
2023-11-30T07:12:29.061Z,93603.72
2023-11-30T07:14:57.911Z,93606.34
2023-11-30T07:17:25.737Z,93609.75
2023-11-30T07:19:54.350Z,93609.75
2023-11-30T07:22:23.317Z,93615.00
2023-11-30T07:24:50.997Z,93616.78
2023-11-30T07:27:19.373Z,93612.38
2023-11-30T07:29:46.941Z,93608.75
2023-11-30T07:32:17.782Z,93608.75
2023-11-30T07:34:45.550Z,93600.13
2023-11-30T07:37:13.023Z,93600.13
2023-11-30T07:39:40.542Z,93596.69
2023-11-30T07:42:08.830Z,93598.50
2023-11-30T07:44:36.661Z,93592.47
2023-11-30T07:47:04.317Z,93591.28
2023-11-30T07:49:33.137Z,93597.31
2023-11-30T07:52:00.655Z,93595.69
2023-11-30T07:54:28.275Z,93593.06
2023-11-30T07:56:55.803Z,93584.44
2023-11-30T07:59:23.442Z,93587.06
2023-11-30T08:01:50.975Z,93582.63
2023-11-30T08:04:18.535Z,93584.25
2023-11-30T08:06:48.197Z,93583.44
2023-11-30T08:09:15.744Z,93586.84
2023-11-30T08:11:44.131Z,93586.84
2023-11-30T08:14:11.681Z,93574.00
2023-11-30T08:16:41.495Z,93580.81
2023-11-30T08:19:09.334Z,93586.03
2023-11-30T08:21:41.339Z,93581.84
2023-11-30T08:24:10.771Z,93587.06
2023-11-30T08:26:38.399Z,93588.84
2023-11-30T08:29:05.928Z,93588.03
2023-11-30T08:31:34.795Z,93581.84
2023-11-30T08:34:02.436Z,93585.22
2023-11-30T08:36:30.170Z,93585.22
2023-11-30T08:38:57.679Z,93583.63
2023-11-30T08:41:26.535Z,93574.97
2023-11-30T08:43:54.037Z,93578.41
2023-11-30T08:46:21.610Z,93576.63
2023-11-30T08:48:49.198Z,93566.94
2023-11-30T08:51:16.690Z,93578.22
2023-11-30T08:53:44.166Z,93579.22
2023-11-30T08:56:12.156Z,93581.84
2023-11-30T08:58:41.027Z,93584.44
2023-11-30T09:01:09.156Z,93587.06
2023-11-30T09:03:36.782Z,93589.69
2023-11-30T09:06:04.525Z,93580.00
2023-11-30T09:08:32.057Z,93581.03
2023-11-30T09:10:59.561Z,93578.41
2023-11-30T09:13:27.056Z,93575.78
2023-11-30T09:15:55.931Z,93580.00
2023-11-30T09:18:23.501Z,93578.41
2023-11-30T09:20:51.004Z,93581.84
2023-11-30T09:23:18.485Z,93574.78
2023-11-30T09:25:46.376Z,93576.41
2023-11-30T09:28:13.989Z,93581.63
2023-11-30T09:30:41.574Z,93575.59
2023-11-30T09:33:11.289Z,93576.41
2023-11-30T09:35:38.779Z,93581.63
2023-11-30T09:38:06.272Z,93574.00
2023-11-30T09:40:35.393Z,93576.41
2023-11-30T09:43:02.931Z,93570.38
2023-11-30T09:45:30.666Z,93559.91
2023-11-30T09:47:58.236Z,93561.72
2023-11-30T09:50:27.108Z,93563.34
2023-11-30T09:52:54.624Z,93557.50
2023-11-30T09:55:26.427Z,93554.91
2023-11-30T09:57:53.969Z,93553.88
2023-11-30T10:00:21.803Z,93542.66
2023-11-30T10:02:53.907Z,93537.44
2023-11-30T10:05:21.672Z,93541.84
2023-11-30T10:07:50.535Z,93530.38
2023-11-30T10:10:18.048Z,93526.16
2023-11-30T10:12:45.562Z,93532.19
2023-11-30T10:15:13.088Z,93519.91
2023-11-30T10:17:40.700Z,93522.53
2023-11-30T10:20:12.313Z,93526.97
2023-11-30T10:22:40.292Z,93515.72
2023-11-30T10:25:09.927Z,93508.47
2023-11-30T10:27:37.948Z,93494.81
2023-11-30T10:30:06.311Z,93493.78
2023-11-30T10:32:34.161Z,93490.41
2023-11-30T10:35:04.495Z,93484.16
2023-11-30T10:37:33.469Z,93471.31
2023-11-30T10:40:04.070Z,93461.66
2023-11-30T10:42:34.169Z,93456.44
2023-11-30T10:45:03.430Z,93452.00
2023-11-30T10:47:31.335Z,93446.78
2023-11-30T10:50:00.754Z,93442.56
2023-11-30T10:52:29.481Z,93443.38
2023-11-30T10:55:01.131Z,93431.09
2023-11-30T10:57:28.771Z,93432.94
2023-11-30T10:59:59.648Z,93424.06
2023-11-30T11:02:27.256Z,93426.88
2023-11-30T11:04:54.924Z,93425.88
2023-11-30T11:07:22.569Z,93420.66
2023-11-30T11:09:52.885Z,93418.84
2023-11-30T11:12:21.615Z,93406.81
2023-11-30T11:14:50.621Z,93410.19
2023-11-30T11:17:21.555Z,93406.81
2023-11-30T11:19:49.044Z,93409.41
2023-11-30T11:22:17.309Z,93413.63
2023-11-30T11:24:45.195Z,93410.19
2023-11-30T11:27:12.755Z,93410.19
2023-11-30T11:29:44.908Z,93409.41
2023-11-30T11:32:13.273Z,93412.03
2023-11-30T11:34:42.075Z,93417.84
2023-11-30T11:37:09.594Z,93413.63
2023-11-30T11:39:37.111Z,93408.41
2023-11-30T11:42:05.293Z,93404.19
2023-11-30T11:44:32.828Z,93391.91
2023-11-30T11:47:00.465Z,93386.69
2023-11-30T11:49:28.046Z,93380.69
2023-11-30T11:51:57.158Z,93387.50
2023-11-30T11:54:24.940Z,93385.91
2023-11-30T11:56:53.019Z,93378.06
2023-11-30T11:59:23.812Z,93381.66
2023-11-30T12:01:51.772Z,93387.69
2023-11-30T12:04:29.671Z,93378.84
2023-11-30T12:06:59.041Z,93372.03
2023-11-30T12:09:26.584Z,93377.25
2023-11-30T12:11:54.207Z,93384.06
2023-11-30T12:14:23.472Z,93377.03
2023-11-30T12:16:51.010Z,93375.44
2023-11-30T12:19:21.025Z,93378.84
2023-11-30T12:21:48.849Z,93371.00
2023-11-30T12:24:17.784Z,93372.03
2023-11-30T12:26:45.958Z,93375.44
2023-11-30T12:29:13.496Z,93373.63
2023-11-30T12:31:41.367Z,93371.00
2023-11-30T12:34:10.210Z,93374.63
2023-11-30T12:36:37.820Z,93365.00
2023-11-30T12:39:06.006Z,93363.16
2023-11-30T12:41:34.844Z,93377.03
2023-11-30T12:44:04.902Z,93364.78
2023-11-30T12:46:33.154Z,93368.22
2023-11-30T12:49:00.685Z,93366.41
2023-11-30T12:51:28.274Z,93371.66
2023-11-30T12:53:55.768Z,93369.81
2023-11-30T12:56:23.243Z,93368.81
2023-11-30T12:58:52.066Z,93363.59
2023-11-30T13:01:20.117Z,93357.56
2023-11-30T13:03:47.705Z,93356.75
2023-11-30T13:06:15.246Z,93360.19
2023-11-30T13:08:42.764Z,93354.94
2023-11-30T13:11:10.362Z,93367.03
2023-11-30T13:13:42.431Z,93358.59
2023-11-30T13:16:14.028Z,93365.41
2023-11-30T13:18:41.659Z,93358.38
2023-11-30T13:21:09.465Z,93363.81
2023-11-30T13:23:36.990Z,93355.16
2023-11-30T13:26:04.618Z,93353.16
2023-11-30T13:28:37.839Z,93352.34
2023-11-30T13:31:10.910Z,93348.13
2023-11-30T13:33:39.928Z,93344.50
2023-11-30T13:36:08.117Z,93344.72
2023-11-30T13:38:36.922Z,93342.91
2023-11-30T13:41:04.853Z,93355.16
2023-11-30T13:43:32.326Z,93361.38
2023-11-30T13:46:00.505Z,93355.16
2023-11-30T13:48:28.425Z,93358.59
2023-11-30T13:51:00.846Z,93357.78
2023-11-30T13:53:31.322Z,93363.00
2023-11-30T13:55:58.990Z,93351.75
2023-11-30T13:58:26.479Z,93349.13
2023-11-30T14:00:54.234Z,93349.94
2023-11-30T14:03:21.840Z,93365.59
2023-11-30T14:05:49.561Z,93356.97
2023-11-30T14:08:18.378Z,93370.03
2023-11-30T14:10:47.882Z,93367.41
2023-11-30T14:13:15.454Z,93373.44
2023-11-30T14:15:43.168Z,93363.00
2023-11-30T14:18:10.666Z,93362.19
2023-11-30T14:20:40.061Z,93356.16
2023-11-30T14:23:08.493Z,93363.00
2023-11-30T14:25:37.457Z,93369.03
2023-11-30T14:28:11.316Z,93366.41
2023-11-30T14:30:40.603Z,93353.34
2023-11-30T14:33:10.812Z,93355.97
2023-11-30T14:35:40.152Z,93355.16
2023-11-30T14:38:07.620Z,93355.97
2023-11-30T14:40:35.141Z,93358.38
2023-11-30T14:43:03.986Z,93363.81
2023-11-30T14:45:31.941Z,93374.88
2023-11-30T14:47:59.780Z,93366.41
2023-11-30T14:50:27.340Z,93374.25
2023-11-30T14:52:55.016Z,93366.41
2023-11-30T14:55:22.957Z,93373.25
2023-11-30T14:57:50.473Z,93368.00
2023-11-30T15:00:22.099Z,93376.66
2023-11-30T15:02:49.846Z,93372.44
2023-11-30T15:05:17.452Z,93374.25
2023-11-30T15:07:45.168Z,93382.09
2023-11-30T15:10:13.004Z,93392.53
2023-11-30T15:12:40.683Z,93381.09
2023-11-30T15:15:14.728Z,93384.72
2023-11-30T15:17:45.295Z,93380.25
2023-11-30T15:20:13.637Z,93383.91
2023-11-30T15:22:41.561Z,93377.66
2023-11-30T15:25:17.527Z,93380.25
2023-11-30T15:27:45.108Z,93388.31
2023-11-30T15:30:13.398Z,93386.31
2023-11-30T15:32:40.921Z,93374.25
2023-11-30T15:35:09.987Z,93386.50
2023-11-30T15:37:37.849Z,93381.28
2023-11-30T15:40:10.112Z,93387.31
2023-11-30T15:42:38.996Z,93387.31
2023-11-30T15:45:10.364Z,93388.91
2023-11-30T15:47:39.593Z,93382.09
2023-11-30T15:50:07.635Z,93375.84
2023-11-30T15:52:36.459Z,93374.06
2023-11-30T15:55:04.100Z,93376.47
2023-11-30T15:57:31.734Z,93380.34
2023-11-30T15:59:59.328Z,93383.78
2023-11-30T16:02:28.234Z,93380.56
2023-11-30T16:04:55.824Z,93386.19
2023-11-30T16:07:23.311Z,93381.16
2023-11-30T16:09:52.386Z,93384.91
2023-11-30T16:12:20.040Z,93380.72
2023-11-30T16:14:47.585Z,93380.72
2023-11-30T16:17:15.098Z,93372.06
2023-11-30T16:19:42.718Z,93375.50
2023-11-30T16:22:10.202Z,93384.91
2023-11-30T16:24:37.904Z,93386.56
2023-11-30T16:27:06.963Z,93384.78
2023-11-30T16:29:34.513Z,93391.41
2023-11-30T16:32:02.036Z,93388.59
2023-11-30T16:34:32.068Z,93378.16
2023-11-30T16:37:00.346Z,93385.56
2023-11-30T16:39:28.679Z,93378.38
2023-11-30T16:41:57.260Z,93387.59
2023-11-30T16:44:26.121Z,93391.44
2023-11-30T16:46:53.617Z,93396.69
2023-11-30T16:49:21.122Z,93396.69
2023-11-30T16:51:52.664Z,93402.91
2023-11-30T16:54:23.207Z,93400.28
2023-11-30T16:56:50.762Z,93402.09
2023-11-30T16:59:18.295Z,93402.91
2023-11-30T17:01:47.249Z,93394.25
2023-11-30T17:04:14.900Z,93402.91
2023-11-30T17:06:42.444Z,93402.09
2023-11-30T17:09:09.988Z,93408.94
2023-11-30T17:11:37.507Z,93411.56
2023-11-30T17:14:05.052Z,93410.53
2023-11-30T17:16:32.581Z,93409.75
2023-11-30T17:19:01.439Z,93409.53
2023-11-30T17:21:28.994Z,93399.09
2023-11-30T17:23:59.397Z,93398.28
2023-11-30T17:26:26.919Z,93391.03
2023-11-30T17:28:54.409Z,93398.06
2023-11-30T17:31:21.902Z,93397.06
2023-11-30T17:33:49.605Z,93391.03
2023-11-30T17:36:18.815Z,93395.44
2023-11-30T17:38:46.342Z,93402.31
2023-11-30T17:41:13.848Z,93402.09
2023-11-30T17:43:41.347Z,93401.91
2023-11-30T17:46:09.761Z,93395.88
2023-11-30T17:48:37.344Z,93391.25
2023-11-30T17:51:08.735Z,93380.00
2023-11-30T17:53:37.590Z,93392.84
2023-11-30T17:56:05.472Z,93387.63
2023-11-30T17:58:32.950Z,93392.06
2023-11-30T18:01:00.588Z,93388.25
2023-11-30T18:03:28.188Z,93385.66
2023-11-30T18:05:55.699Z,93384.84
2023-11-30T18:08:23.226Z,93385.00
2023-11-30T18:10:52.147Z,93376.56
2023-11-30T18:13:19.740Z,93381.00
2023-11-30T18:15:50.237Z,93375.97
2023-11-30T18:18:17.876Z,93375.19
2023-11-30T18:20:45.518Z,93376.16
2023-11-30T18:23:13.020Z,93372.94
2023-11-30T18:25:40.629Z,93365.50
2023-11-30T18:28:09.675Z,93379.75
2023-11-30T18:30:37.449Z,93377.34
2023-11-30T18:33:04.982Z,93374.94
2023-11-30T18:35:32.476Z,93370.53
2023-11-30T18:38:03.561Z,93375.75
2023-11-30T18:40:31.441Z,93374.94
2023-11-30T18:42:59.093Z,93378.38
2023-11-30T18:45:28.614Z,93383.78
2023-11-30T18:47:56.571Z,93376.97
2023-11-30T18:50:24.086Z,93379.56
2023-11-30T18:52:52.652Z,93389.41
2023-11-30T18:55:20.113Z,93392.03
2023-11-30T18:57:48.332Z,93391.22
2023-11-30T19:00:16.365Z,93391.22
2023-11-30T19:02:45.304Z,93400.88
2023-11-30T19:05:12.930Z,93388.03
2023-11-30T19:07:40.479Z,93388.19
2023-11-30T19:10:10.532Z,93385.19
2023-11-30T19:12:38.371Z,93382.78
2023-11-30T19:15:06.762Z,93375.94
2023-11-30T19:17:34.343Z,93370.09
2023-11-30T19:20:06.459Z,93372.09
2023-11-30T19:22:33.968Z,93371.31
2023-11-30T19:25:01.648Z,93359.25
2023-11-30T19:27:29.216Z,93358.66
2023-11-30T19:29:56.727Z,93374.31
2023-11-30T19:32:24.237Z,93360.44
2023-11-30T19:34:51.693Z,93355.22
2023-11-30T19:37:20.714Z,93353.56
2023-11-30T19:39:48.265Z,93357.84
2023-11-30T19:42:15.783Z,93361.25
2023-11-30T19:44:43.298Z,93355.81
2023-11-30T19:47:13.543Z,93355.44
2023-11-30T19:49:43.452Z,93362.47
2023-11-30T19:52:11.514Z,93357.66
2023-11-30T19:54:40.679Z,93365.31
2023-11-30T19:57:08.202Z,93370.13
2023-11-30T19:59:35.708Z,93367.34
2023-11-30T20:02:03.350Z,93368.94
2023-11-30T20:04:30.925Z,93368.13
2023-11-30T20:06:58.413Z,93368.13
2023-11-30T20:09:25.987Z,93369.53
2023-11-30T20:11:54.824Z,93361.47
2023-11-30T20:14:22.323Z,93370.94
2023-11-30T20:16:49.857Z,93377.59
2023-11-30T20:19:17.365Z,93376.41
2023-11-30T20:21:44.889Z,93370.16
2023-11-30T20:24:12.412Z,93374.16
2023-11-30T20:26:43.782Z,93365.94
2023-11-30T20:29:13.725Z,93369.16
2023-11-30T20:31:41.237Z,93369.75
2023-11-30T20:34:08.967Z,93367.75
2023-11-30T20:36:36.580Z,93377.22
2023-11-30T20:39:04.376Z,93378.81
2023-11-30T20:41:31.853Z,93387.25
2023-11-30T20:43:59.380Z,93388.88
2023-11-30T20:46:28.244Z,93392.91
2023-11-30T20:48:55.756Z,93388.47
2023-11-30T20:51:23.320Z,93387.69
2023-11-30T20:53:50.795Z,93387.88
2023-11-30T20:56:18.385Z,93390.09
2023-11-30T20:58:48.004Z,93387.25
2023-11-30T21:01:15.789Z,93389.09
2023-11-30T21:03:44.800Z,93390.69
2023-11-30T21:06:12.342Z,93392.50
2023-11-30T21:08:39.802Z,93393.69
2023-11-30T21:11:07.379Z,93401.97
2023-11-30T21:13:34.965Z,93398.75
2023-11-30T21:16:02.578Z,93402.78
2023-11-30T21:18:30.278Z,93397.72
2023-11-30T21:20:59.292Z,93396.53
2023-11-30T21:23:26.891Z,93404.00
2023-11-30T21:25:54.813Z,93402.78
2023-11-30T21:28:22.336Z,93391.91
2023-11-30T21:30:49.874Z,93386.28
2023-11-30T21:33:17.390Z,93379.84
2023-11-30T21:35:44.896Z,93388.88
2023-11-30T21:38:13.728Z,93389.28
2023-11-30T21:40:41.241Z,93391.50
2023-11-30T21:43:08.793Z,93403.97
2023-11-30T21:45:36.332Z,93401.72
2023-11-30T21:48:03.999Z,93410.56
2023-11-30T21:50:31.636Z,93400.53
2023-11-30T21:52:59.631Z,93407.75
2023-11-30T21:55:28.603Z,93410.38
2023-11-30T21:57:56.251Z,93410.56
2023-11-30T22:00:23.860Z,93412.38
2023-11-30T22:02:51.496Z,93404.13
2023-11-30T22:05:26.755Z,93411.97
2023-11-30T22:08:00.460Z,93421.00
2023-11-30T22:10:29.327Z,93420.41
2023-11-30T22:12:56.848Z,93430.25
2023-11-30T22:15:24.670Z,93423.59
2023-11-30T22:17:52.295Z,93418.56
2023-11-30T22:20:19.853Z,93410.75
2023-11-30T22:22:47.350Z,93415.34
2023-11-30T22:25:15.051Z,93413.72
2023-11-30T22:27:43.968Z,93420.78
2023-11-30T22:30:14.474Z,93419.16
2023-11-30T22:32:42.021Z,93416.56
2023-11-30T22:35:09.836Z,93424.59
2023-11-30T22:37:37.401Z,93422.16
2023-11-30T22:40:05.359Z,93419.53
2023-11-30T22:42:33.454Z,93417.94
2023-11-30T22:45:02.473Z,93414.53
2023-11-30T22:47:30.278Z,93415.34
2023-11-30T22:49:57.930Z,93412.94
2023-11-30T22:52:26.828Z,93418.34
2023-11-30T22:54:54.660Z,93418.34
2023-11-30T22:57:22.226Z,93422.78
2023-11-30T22:59:50.133Z,93425.41
2023-11-30T23:02:19.653Z,93419.34
2023-11-30T23:04:47.363Z,93420.94
2023-11-30T23:07:14.989Z,93420.16
2023-11-30T23:09:42.508Z,93407.28
2023-11-30T23:12:10.298Z,93404.50
2023-11-30T23:14:38.119Z,93413.31
2023-11-30T23:17:05.850Z,93411.50
2023-11-30T23:19:34.667Z,93421.97
2023-11-30T23:22:02.124Z,93420.16
2023-11-30T23:24:31.927Z,93407.88
2023-11-30T23:26:59.901Z,93409.72
2023-11-30T23:29:27.458Z,93407.88
2023-11-30T23:31:54.948Z,93403.69
2023-11-30T23:34:22.536Z,93402.66
2023-11-30T23:36:51.451Z,93403.69
2023-11-30T23:39:18.993Z,93405.28
2023-11-30T23:41:46.644Z,93397.63
2023-11-30T23:44:14.228Z,93405.47
2023-11-30T23:46:41.787Z,93395.03
2023-11-30T23:49:09.370Z,93396.81
2023-11-30T23:51:36.886Z,93396.81
2023-11-30T23:54:06.002Z,93391.59
2023-11-30T23:56:33.684Z,93401.25
2023-11-30T23:59:01.206Z,93392.41
